createdAt,value
2018-09-12T00:00:02.743Z,22.15
2018-09-12T00:02:31.856Z,22.16
2018-09-12T00:05:00.823Z,22.14
2018-09-12T00:07:30.139Z,22.12
2018-09-12T00:09:59.226Z,22.11
2018-09-12T00:12:28.447Z,22.15
2018-09-12T00:14:57.681Z,22.13
2018-09-12T00:17:26.991Z,22.18
2018-09-12T00:19:56.233Z,22.16
2018-09-12T00:22:25.395Z,22.14
2018-09-12T00:24:54.471Z,22.13
2018-09-12T00:27:23.772Z,22.12
2018-09-12T00:29:52.979Z,22.12
2018-09-12T00:32:22.182Z,22.12
2018-09-12T00:34:51.512Z,22.09
2018-09-12T00:37:20.651Z,22.12
2018-09-12T00:39:49.945Z,22.08
2018-09-12T00:42:19.412Z,22.04
2018-09-12T00:44:48.763Z,22.03
2018-09-12T00:47:17.781Z,22.01
2018-09-12T00:49:46.892Z,21.96
2018-09-12T00:52:16.137Z,21.96
2018-09-12T00:54:45.390Z,22.00
2018-09-12T00:57:14.732Z,21.98
2018-09-12T00:59:43.777Z,21.92
2018-09-12T01:02:13.134Z,21.90
2018-09-12T01:04:42.385Z,21.86
2018-09-12T01:07:11.672Z,21.81
2018-09-12T01:09:40.847Z,21.77
2018-09-12T01:12:10.142Z,21.71
2018-09-12T01:14:39.438Z,21.65
2018-09-12T01:17:08.600Z,21.61
2018-09-12T01:19:37.703Z,21.54
2018-09-12T01:22:07.005Z,21.53
2018-09-12T01:24:36.210Z,21.52
2018-09-12T01:27:05.592Z,21.50
2018-09-12T01:29:34.708Z,21.48
2018-09-12T01:32:04.102Z,21.53
2018-09-12T01:34:33.452Z,21.49
2018-09-12T01:37:02.641Z,21.47
2018-09-12T01:39:31.903Z,21.44
2018-09-12T01:42:00.709Z,21.43
2018-09-12T01:44:30.039Z,21.42
2018-09-12T01:46:59.167Z,21.36
2018-09-12T01:49:28.186Z,21.37
2018-09-12T01:51:57.256Z,21.34
2018-09-12T01:54:26.072Z,21.31
2018-09-12T01:56:55.395Z,21.35
2018-09-12T01:59:24.429Z,21.26
2018-09-12T02:01:53.683Z,21.27
2018-09-12T02:04:22.859Z,21.23
2018-09-12T02:06:52.005Z,21.29
2018-09-12T02:09:21.116Z,21.23
2018-09-12T02:11:50.359Z,21.20
2018-09-12T02:14:19.449Z,21.27
2018-09-12T02:16:48.551Z,21.23
2018-09-12T02:19:17.767Z,21.23
2018-09-12T02:21:46.660Z,21.20
2018-09-12T02:24:15.931Z,21.22
2018-09-12T02:26:45.148Z,21.12
2018-09-12T02:29:14.148Z,21.11
2018-09-12T02:31:43.547Z,21.09
2018-09-12T02:34:12.839Z,21.02
2018-09-12T02:36:42.150Z,20.96
2018-09-12T02:39:11.083Z,20.96
2018-09-12T02:41:40.075Z,21.03
2018-09-12T02:44:09.468Z,21.01
2018-09-12T02:46:38.946Z,20.98
2018-09-12T02:49:08.281Z,20.98
2018-09-12T02:51:37.720Z,20.93
2018-09-12T02:54:07.091Z,20.86
2018-09-12T02:56:36.477Z,20.94
2018-09-12T02:59:05.387Z,20.96
2018-09-12T03:01:34.430Z,20.94
2018-09-12T03:04:19.400Z,20.88
2018-09-12T03:06:48.592Z,20.90
2018-09-12T03:09:17.928Z,20.79
2018-09-12T03:11:46.936Z,20.81
2018-09-12T03:14:16.309Z,20.80
2018-09-12T03:16:45.567Z,20.75
2018-09-12T03:19:14.876Z,20.65
2018-09-12T03:21:44.017Z,20.60
2018-09-12T03:24:13.410Z,20.50
2018-09-12T03:26:42.360Z,20.51
2018-09-12T03:29:11.759Z,20.54
2018-09-12T03:31:40.781Z,20.40
2018-09-12T03:34:09.899Z,20.25
2018-09-12T03:36:39.140Z,20.23
2018-09-12T03:39:10.273Z,20.04
2018-09-12T03:41:40.017Z,19.86
2018-09-12T03:44:09.751Z,19.80
2018-09-12T03:46:39.252Z,19.84
2018-09-12T03:49:08.305Z,19.85
2018-09-12T03:51:37.640Z,19.87
2018-09-12T03:54:06.949Z,19.88
2018-09-12T03:56:36.107Z,19.97
2018-09-12T03:59:05.438Z,19.98
2018-09-12T04:01:34.700Z,20.06
2018-09-12T04:04:03.938Z,20.09
2018-09-12T04:06:33.447Z,20.10
2018-09-12T04:09:02.916Z,20.13
2018-09-12T04:11:32.235Z,20.19
2018-09-12T04:14:01.238Z,20.22
2018-09-12T04:16:30.119Z,20.26
2018-09-12T04:18:59.382Z,20.25
2018-09-12T04:21:28.483Z,20.18
2018-09-12T04:23:57.767Z,20.22
2018-09-12T04:26:27.075Z,20.17
2018-09-12T04:28:56.370Z,20.16
2018-09-12T04:31:25.713Z,20.15
2018-09-12T04:33:54.598Z,20.12
2018-09-12T04:36:23.858Z,20.19
2018-09-12T04:38:53.033Z,20.23
2018-09-12T04:41:22.216Z,20.24
2018-09-12T04:43:51.620Z,20.23
2018-09-12T04:46:20.680Z,20.26
2018-09-12T04:48:49.908Z,20.28
2018-09-12T04:51:19.123Z,20.26
2018-09-12T04:53:47.989Z,20.28
2018-09-12T04:56:17.270Z,20.32
2018-09-12T04:58:46.628Z,20.36
2018-09-12T05:01:15.801Z,20.38
2018-09-12T05:03:45.092Z,20.45
2018-09-12T05:06:14.193Z,20.47
2018-09-12T05:08:43.552Z,20.48
2018-09-12T05:11:12.769Z,20.57
2018-09-12T05:13:42.050Z,20.57
2018-09-12T05:16:11.465Z,20.60
2018-09-12T05:18:40.811Z,20.63
2018-09-12T05:21:10.130Z,20.70
2018-09-12T05:23:39.055Z,20.74
2018-09-12T05:26:08.402Z,20.79
2018-09-12T05:28:37.584Z,20.82
2018-09-12T05:31:06.835Z,20.86
2018-09-12T05:33:36.157Z,20.91
2018-09-12T05:36:05.492Z,21.00
2018-09-12T05:38:34.807Z,21.11
2018-09-12T05:41:04.194Z,21.31
2018-09-12T05:43:33.555Z,21.35
2018-09-12T05:46:03.048Z,21.39
2018-09-12T05:48:31.847Z,21.47
2018-09-12T05:51:00.868Z,21.52
2018-09-12T05:53:30.120Z,21.43
2018-09-12T05:55:59.371Z,21.46
2018-09-12T05:58:28.728Z,21.52
2018-09-12T06:00:58.084Z,21.58
2018-09-12T06:03:27.419Z,21.59
2018-09-12T06:05:56.563Z,21.65
2018-09-12T06:08:25.759Z,21.73
2018-09-12T06:10:54.818Z,21.84
2018-09-12T06:13:24.174Z,21.98
2018-09-12T06:15:53.216Z,22.05
2018-09-12T06:18:22.430Z,22.18
2018-09-12T06:20:51.525Z,22.20
2018-09-12T06:23:20.607Z,22.25
2018-09-12T06:25:49.804Z,22.25
2018-09-12T06:28:19.156Z,22.15
2018-09-12T06:30:48.740Z,22.18
2018-09-12T06:33:18.288Z,22.17
2018-09-12T06:35:47.792Z,22.31
2018-09-12T06:38:17.232Z,22.34
2018-09-12T06:40:47.673Z,22.34
2018-09-12T06:43:17.170Z,22.39
2018-09-12T06:45:46.753Z,22.43
2018-09-12T06:48:16.303Z,22.42
2018-09-12T06:53:13.651Z,22.62
2018-09-12T06:55:43.043Z,22.66
2018-09-12T06:58:12.652Z,22.72
2018-09-12T07:00:42.128Z,22.73
2018-09-12T07:03:11.660Z,22.73
2018-09-12T07:05:41.115Z,22.79
2018-09-12T07:08:10.702Z,22.86
2018-09-12T07:10:40.367Z,22.99
2018-09-12T07:13:09.896Z,23.17
2018-09-12T07:15:40.231Z,23.15
2018-09-12T07:18:09.858Z,23.16
2018-09-12T07:20:39.188Z,23.23
2018-09-12T07:23:08.699Z,23.24
2018-09-12T07:25:38.244Z,23.38
2018-09-12T07:28:07.859Z,23.50
2018-09-12T07:30:37.517Z,23.55
2018-09-12T07:33:06.787Z,23.68
2018-09-12T07:35:36.258Z,23.81
2018-09-12T07:38:05.987Z,24.06
2018-09-12T07:40:35.501Z,24.44
2018-09-12T07:43:05.132Z,25.03
2018-09-12T07:45:34.321Z,25.99
2018-09-12T07:48:04.016Z,26.55
2018-09-12T07:50:33.655Z,26.97
2018-09-12T07:53:03.252Z,27.46
2018-09-12T07:55:32.833Z,27.84
2018-09-12T07:58:02.353Z,27.95
2018-09-12T08:00:31.957Z,27.66
2018-09-12T08:03:01.494Z,27.34
2018-09-12T08:05:30.724Z,27.08
2018-09-12T08:08:00.073Z,26.78
2018-09-12T08:10:29.247Z,26.40
2018-09-12T08:12:58.829Z,26.20
2018-09-12T08:15:28.430Z,25.87
2018-09-12T08:17:57.907Z,25.77
2018-09-12T08:20:27.219Z,25.77
2018-09-12T08:22:56.920Z,25.99
2018-09-12T08:25:26.679Z,26.35
2018-09-12T08:27:56.124Z,26.55
2018-09-12T08:30:25.448Z,26.93
2018-09-12T08:32:54.669Z,27.34
2018-09-12T08:35:24.040Z,27.76
2018-09-12T08:37:53.663Z,28.10
2018-09-12T08:40:23.258Z,28.15
2018-09-12T08:42:52.928Z,28.27
2018-09-12T08:45:22.401Z,28.31
2018-09-12T08:47:52.048Z,28.36
2018-09-12T08:50:23.929Z,28.47
2018-09-12T08:52:54.711Z,28.60
2018-09-12T08:55:24.282Z,28.61
2018-09-12T08:57:54.040Z,28.45
2018-09-12T09:00:27.493Z,28.47
2018-09-12T09:02:57.069Z,28.48
2018-09-12T09:05:26.428Z,28.35
2018-09-12T09:07:55.647Z,28.27
2018-09-12T09:10:25.280Z,28.26
2018-09-12T09:12:55.815Z,28.33
2018-09-12T09:15:26.088Z,28.28
2018-09-12T09:17:55.647Z,28.30
2018-09-12T09:20:25.032Z,28.45
2018-09-12T09:22:54.739Z,28.67
2018-09-12T09:25:24.267Z,28.53
2018-09-12T09:27:53.743Z,28.63
2018-09-12T09:30:24.564Z,29.05
2018-09-12T09:32:54.052Z,29.59
2018-09-12T09:35:24.005Z,30.30
2018-09-12T09:37:53.387Z,30.96
2018-09-12T09:40:23.011Z,31.51
2018-09-12T09:42:52.625Z,31.57
2018-09-12T09:45:22.070Z,32.37
2018-09-12T09:47:51.562Z,32.81
2018-09-12T09:50:21.025Z,33.21
2018-09-12T09:52:50.476Z,33.25
2018-09-12T09:55:19.971Z,32.68
2018-09-12T09:57:49.561Z,32.65
2018-09-12T10:00:24.053Z,32.47
2018-09-12T10:02:58.124Z,32.68
2018-09-12T10:05:32.556Z,33.05
2018-09-12T10:08:06.931Z,34.16
2018-09-12T10:10:36.588Z,35.97
2018-09-12T10:13:06.302Z,37.91
2018-09-12T10:15:36.258Z,38.91
2018-09-12T10:18:05.906Z,40.47
2018-09-12T10:20:35.723Z,42.26
2018-09-12T10:23:05.423Z,43.24
2018-09-12T10:25:35.042Z,43.50
2018-09-12T10:28:06.488Z,43.34
2018-09-12T10:30:35.967Z,44.63
2018-09-12T10:33:06.343Z,45.79
2018-09-12T10:35:36.501Z,46.55
2018-09-12T10:38:06.253Z,47.30
2018-09-12T10:40:35.699Z,47.04
2018-09-12T10:43:05.279Z,45.90
2018-09-12T10:45:34.723Z,46.65
2018-09-12T10:48:04.248Z,47.58
2018-09-12T10:50:33.821Z,47.24
2018-09-12T10:53:03.505Z,48.21
2018-09-12T10:55:32.919Z,49.53
2018-09-12T10:58:02.476Z,50.45
2018-09-12T11:00:32.083Z,51.06
2018-09-12T11:03:01.542Z,51.12
2018-09-12T11:05:31.111Z,51.04
2018-09-12T11:08:00.616Z,50.69
2018-09-12T11:10:30.194Z,48.58
2018-09-12T11:13:00.307Z,46.20
2018-09-12T11:15:30.028Z,45.23
2018-09-12T11:17:59.557Z,43.44
2018-09-12T11:20:28.759Z,41.61
2018-09-12T11:22:58.079Z,40.06
2018-09-12T11:25:27.327Z,38.51
2018-09-12T11:27:56.546Z,36.95
2018-09-12T11:30:25.744Z,35.66
2018-09-12T11:32:54.961Z,34.75
2018-09-12T11:35:24.205Z,34.00
2018-09-12T11:37:53.391Z,33.83
2018-09-12T11:40:22.633Z,35.49
2018-09-12T11:42:51.892Z,36.28
2018-09-12T11:45:21.076Z,35.89
2018-09-12T11:47:50.325Z,35.82
2018-09-12T11:50:20.908Z,35.44
2018-09-12T11:52:50.147Z,34.69
2018-09-12T11:55:19.806Z,34.07
2018-09-12T11:57:49.160Z,33.34
2018-09-12T12:00:18.403Z,32.57
2018-09-12T12:02:47.679Z,32.14
2018-09-12T12:05:16.894Z,31.79
2018-09-12T12:07:46.197Z,31.48
2018-09-12T12:10:15.510Z,31.13
2018-09-12T12:12:44.699Z,30.80
2018-09-12T12:15:14.332Z,30.53
2018-09-12T12:17:43.486Z,29.77
2018-09-12T12:22:50.971Z,28.27
2018-09-12T12:25:20.518Z,27.46
2018-09-12T12:27:49.976Z,27.07
2018-09-12T12:30:19.196Z,26.81
2018-09-12T12:32:48.763Z,26.54
2018-09-12T12:35:18.483Z,26.60
2018-09-12T12:37:49.156Z,27.58
2018-09-12T12:40:18.684Z,27.74
2018-09-12T12:42:48.193Z,27.70
2018-09-12T12:45:18.767Z,27.35
2018-09-12T12:47:48.063Z,26.80
2018-09-12T12:50:17.327Z,26.47
2018-09-12T12:52:46.736Z,26.32
2018-09-12T12:55:16.212Z,26.22
2018-09-12T12:57:45.521Z,26.32
2018-09-12T13:00:15.224Z,26.64
2018-09-12T13:02:44.748Z,26.15
2018-09-12T13:05:14.223Z,25.92
2018-09-12T13:07:43.712Z,25.48
2018-09-12T13:10:13.504Z,25.22
2018-09-12T13:12:42.712Z,25.17
2018-09-12T13:15:12.107Z,25.04
2018-09-12T13:17:41.617Z,24.81
2018-09-12T13:20:11.280Z,24.64
2018-09-12T13:22:40.595Z,24.35
2018-09-12T13:25:10.195Z,24.20
2018-09-12T13:27:39.712Z,24.13
2018-09-12T13:30:09.228Z,24.19
2018-09-12T13:32:38.963Z,24.15
2018-09-12T13:35:08.221Z,24.07
2018-09-12T13:37:37.403Z,24.06
2018-09-12T13:40:07.112Z,24.10
2018-09-12T13:42:36.449Z,24.06
2018-09-12T13:45:06.116Z,24.07
2018-09-12T13:47:35.271Z,23.90
2018-09-12T13:50:04.996Z,23.78
2018-09-12T13:52:34.579Z,23.79
2018-09-12T13:55:04.315Z,23.73
2018-09-12T13:57:33.511Z,23.73
2018-09-12T14:00:03.040Z,23.67
2018-09-12T14:02:32.219Z,23.66
2018-09-12T14:05:01.712Z,23.67
2018-09-12T14:07:31.287Z,23.73
2018-09-12T14:10:00.798Z,23.60
2018-09-12T14:12:29.914Z,23.56
2018-09-12T14:14:59.436Z,23.58
2018-09-12T14:17:29.082Z,23.61
2018-09-12T14:19:58.371Z,23.68
2018-09-12T14:22:27.684Z,23.73
2018-09-12T14:24:57.044Z,23.71
2018-09-12T14:27:26.231Z,23.67
2018-09-12T14:29:55.644Z,23.61
2018-09-12T14:32:25.135Z,23.63
2018-09-12T14:34:54.597Z,23.60
2018-09-12T14:37:24.177Z,23.58
2018-09-12T14:39:53.461Z,23.62
2018-09-12T14:42:22.783Z,23.69
2018-09-12T14:44:51.870Z,23.68
2018-09-12T14:47:21.465Z,23.69
2018-09-12T14:49:50.347Z,23.67
2018-09-12T14:52:19.668Z,23.57
2018-09-12T14:54:48.986Z,23.65
2018-09-12T14:57:18.327Z,23.68
2018-09-12T14:59:47.567Z,23.64
2018-09-12T15:02:16.780Z,23.65
2018-09-12T15:04:46.109Z,23.71
2018-09-12T15:07:15.144Z,23.75
2018-09-12T15:09:44.359Z,23.79
2018-09-12T15:12:13.624Z,23.85
2018-09-12T15:14:42.859Z,23.80
2018-09-12T15:17:12.019Z,23.79
2018-09-12T15:19:42.303Z,23.75
2018-09-12T15:22:11.578Z,23.66
2018-09-12T15:24:40.652Z,23.55
2018-09-12T15:27:09.987Z,23.47
2018-09-12T15:29:39.360Z,23.40
2018-09-12T15:32:08.663Z,23.46
2018-09-12T15:34:38.260Z,23.42
2018-09-12T15:37:07.633Z,23.48
2018-09-12T15:39:36.992Z,23.49
2018-09-12T15:42:06.339Z,23.55
2018-09-12T15:44:35.718Z,23.60
2018-09-12T15:47:05.351Z,23.62
2018-09-12T15:49:34.896Z,23.63
2018-09-12T15:52:04.460Z,23.62
2018-09-12T15:54:33.505Z,23.54
2018-09-12T15:57:02.956Z,23.49
2018-09-12T15:59:32.452Z,23.49
2018-09-12T16:02:01.656Z,23.47
2018-09-12T16:04:31.054Z,23.45
2018-09-12T16:07:00.152Z,23.46
2018-09-12T16:09:29.147Z,23.43
2018-09-12T16:11:58.252Z,23.44
2018-09-12T16:14:27.404Z,23.37
2018-09-12T16:16:56.949Z,23.37
2018-09-12T16:19:26.156Z,23.39
2018-09-12T16:21:55.412Z,23.33
2018-09-12T16:24:24.960Z,23.13
2018-09-12T16:26:54.429Z,23.22
2018-09-12T16:29:23.758Z,23.26
2018-09-12T16:31:53.222Z,23.22
2018-09-12T16:34:22.367Z,23.19
2018-09-12T16:36:51.425Z,23.18
2018-09-12T16:39:20.914Z,23.06
2018-09-12T16:41:50.258Z,23.06
2018-09-12T16:44:19.600Z,23.02
2018-09-12T16:46:49.133Z,22.99
2018-09-12T16:49:18.621Z,23.07
2018-09-12T16:51:47.958Z,22.86
2018-09-12T16:54:17.080Z,23.01
2018-09-12T16:56:46.611Z,23.00
2018-09-12T16:59:15.835Z,22.94
2018-09-12T17:01:45.168Z,22.94
2018-09-12T17:04:14.717Z,22.97
2018-09-12T17:06:44.103Z,22.85
2018-09-12T17:09:13.594Z,23.00
2018-09-12T17:11:43.088Z,22.97
2018-09-12T17:14:12.415Z,22.84
2018-09-12T17:16:41.444Z,22.90
2018-09-12T17:19:10.613Z,23.02
2018-09-12T17:21:40.828Z,22.98
2018-09-12T17:24:10.206Z,22.99
2018-09-12T17:26:39.650Z,22.86
2018-09-12T17:29:09.060Z,22.88
2018-09-12T17:31:38.578Z,23.02
2018-09-12T17:34:08.257Z,23.04
2018-09-12T17:36:37.899Z,23.00
2018-09-12T17:39:09.324Z,22.98
2018-09-12T17:41:38.588Z,22.95
2018-09-12T17:44:08.436Z,22.92
2018-09-12T17:46:37.794Z,22.89
2018-09-12T17:49:07.067Z,22.82
2018-09-12T17:51:36.327Z,22.86
2018-09-12T17:54:05.882Z,22.89
2018-09-12T17:56:35.157Z,22.88
2018-09-12T17:59:04.935Z,22.87
2018-09-12T18:01:34.505Z,22.93
2018-09-12T18:04:05.565Z,22.89
2018-09-12T18:06:35.018Z,22.85
2018-09-12T18:09:05.015Z,22.87
2018-09-12T18:11:34.215Z,22.92
2018-09-12T18:14:04.815Z,22.93
2018-09-12T18:16:34.742Z,22.95
2018-09-12T18:19:07.075Z,22.90
2018-09-12T18:21:37.094Z,22.98
2018-09-12T18:24:07.908Z,23.02
2018-09-12T18:26:38.326Z,23.05
2018-09-12T18:29:08.914Z,22.94
2018-09-12T18:31:39.180Z,22.86
2018-09-12T18:34:08.988Z,22.85
2018-09-12T18:36:40.040Z,22.86
2018-09-12T18:39:10.983Z,22.79
2018-09-12T18:41:41.169Z,22.89
2018-09-12T18:44:11.180Z,22.90
2018-09-12T18:46:40.624Z,22.86
2018-09-12T18:49:10.511Z,22.92
2018-09-12T18:51:40.187Z,22.90
2018-09-12T18:54:09.713Z,22.97
2018-09-12T18:56:40.786Z,23.03
2018-09-12T18:59:10.441Z,22.87
2018-09-12T19:01:39.863Z,22.80
2018-09-12T19:04:10.179Z,22.78
2018-09-12T19:06:39.808Z,22.70
2018-09-12T19:09:12.409Z,22.49
2018-09-12T19:11:42.794Z,22.31
2018-09-12T19:14:12.201Z,22.21
2018-09-12T19:16:42.552Z,21.98
2018-09-12T19:19:11.891Z,21.86
2018-09-12T19:21:41.484Z,21.91
2018-09-12T19:24:11.461Z,21.69
2018-09-12T19:26:41.328Z,21.76
2018-09-12T19:29:11.647Z,21.84
2018-09-12T19:31:41.808Z,21.96
2018-09-12T19:34:11.532Z,21.99
2018-09-12T19:36:40.835Z,22.08
2018-09-12T19:39:11.042Z,22.14
2018-09-12T19:41:40.792Z,22.15
2018-09-12T19:44:10.261Z,22.16
2018-09-12T19:46:39.376Z,22.21
2018-09-12T19:49:08.520Z,22.31
2018-09-12T19:51:37.937Z,22.26
2018-09-12T19:54:08.031Z,22.27
2018-09-12T19:56:37.611Z,22.25
2018-09-12T19:59:07.450Z,22.13
2018-09-12T20:01:37.454Z,22.13
2018-09-12T20:04:07.264Z,22.08
2018-09-12T20:06:36.712Z,22.02
2018-09-12T20:09:11.246Z,22.02
2018-09-12T20:11:40.905Z,22.04
2018-09-12T20:14:11.467Z,22.01
2018-09-12T20:16:41.103Z,21.98
2018-09-12T20:19:11.224Z,21.87
2018-09-12T20:21:41.329Z,21.88
2018-09-12T20:24:12.179Z,21.84
2018-09-12T20:26:42.433Z,21.91
2018-09-12T20:29:12.612Z,21.95
2018-09-12T20:31:42.307Z,21.97
2018-09-12T20:34:11.744Z,21.93
2018-09-12T20:36:41.702Z,21.98
2018-09-12T20:39:12.052Z,22.11
2018-09-12T20:41:41.301Z,22.10
2018-09-12T20:44:10.681Z,22.15
2018-09-12T20:46:39.999Z,22.07
2018-09-12T20:49:09.557Z,22.00
2018-09-12T20:51:43.196Z,21.98
2018-09-12T20:54:13.443Z,22.00
2018-09-12T20:56:44.459Z,22.03
2018-09-12T20:59:14.896Z,22.14
2018-09-12T21:01:44.024Z,22.11
2018-09-12T21:04:13.488Z,22.13
2018-09-12T21:06:44.088Z,22.12
2018-09-12T21:09:14.574Z,22.18
2018-09-12T21:11:44.119Z,22.20
2018-09-12T21:14:13.352Z,22.19
2018-09-12T21:16:42.896Z,22.05
2018-09-12T21:19:12.139Z,21.99
2018-09-12T21:21:41.389Z,22.01
2018-09-12T21:24:10.914Z,21.98
2018-09-12T21:26:40.153Z,22.04
2018-09-12T21:29:09.510Z,21.89
2018-09-12T21:31:39.016Z,22.05
2018-09-12T21:34:08.572Z,22.06
2018-09-12T21:36:37.978Z,21.88
2018-09-12T21:39:09.834Z,21.53
2018-09-12T21:41:39.324Z,21.55
2018-09-12T21:44:08.613Z,21.63
2018-09-12T21:46:37.886Z,21.57
2018-09-12T21:49:06.931Z,21.47
2018-09-12T21:51:36.102Z,21.36
2018-09-12T21:54:05.708Z,21.42
2018-09-12T21:56:34.682Z,21.32
2018-09-12T21:59:04.307Z,21.27
2018-09-12T22:01:33.658Z,21.17
2018-09-12T22:04:02.870Z,21.03
2018-09-12T22:06:32.011Z,21.05
2018-09-12T22:09:01.334Z,21.13
2018-09-12T22:11:30.538Z,21.12
2018-09-12T22:13:59.799Z,20.99
2018-09-12T22:16:29.251Z,20.86
2018-09-12T22:18:58.597Z,20.77
2018-09-12T22:21:27.885Z,20.72
2018-09-12T22:23:56.887Z,20.65
2018-09-12T22:26:26.203Z,20.57
2018-09-12T22:28:55.297Z,20.46
2018-09-12T22:31:24.476Z,20.29
2018-09-12T22:33:53.323Z,20.23
2018-09-12T22:36:22.520Z,20.21
2018-09-12T22:38:51.673Z,20.36
2018-09-12T22:41:20.899Z,20.25
2018-09-12T22:43:50.085Z,20.20
2018-09-12T22:46:19.164Z,20.46
2018-09-12T22:48:48.424Z,20.26
2018-09-12T22:51:17.469Z,20.21
2018-09-12T22:53:46.718Z,20.19
2018-09-12T22:56:16.056Z,20.32
2018-09-12T22:58:45.247Z,20.27
2018-09-12T23:01:14.536Z,20.46
2018-09-12T23:03:44.019Z,20.35
2018-09-12T23:06:13.459Z,20.52
2018-09-12T23:08:42.745Z,20.55
2018-09-12T23:11:12.074Z,20.69
2018-09-12T23:13:41.307Z,20.76
2018-09-12T23:16:10.598Z,20.46
2018-09-12T23:18:39.787Z,20.32
2018-09-12T23:21:09.100Z,20.35
2018-09-12T23:23:38.295Z,20.32
2018-09-12T23:26:07.479Z,20.26
2018-09-12T23:28:36.383Z,20.51
2018-09-12T23:31:05.467Z,20.50
2018-09-12T23:33:34.715Z,20.40
2018-09-12T23:36:03.806Z,20.52
2018-09-12T23:38:33.125Z,20.55
2018-09-12T23:41:02.344Z,20.66
2018-09-12T23:43:31.591Z,20.62
2018-09-12T23:46:00.504Z,20.68
2018-09-12T23:48:29.583Z,20.79
2018-09-12T23:50:58.834Z,20.62
2018-09-12T23:53:27.876Z,20.66
2018-09-12T23:55:57.127Z,20.67
2018-09-12T23:58:26.304Z,20.68
